sensor_id;sensor_type;location;lat;lon;timestamp;P1;durP1;ratioP1;P2;durP2;ratioP2
23123;SDS011;11731;48.592;8.858;2023-03-01T00:00:16;14.43;;;8.10;;
23123;SDS011;11731;48.592;8.858;2023-03-01T00:02:44;14.90;;;8.27;;
23123;SDS011;11731;48.592;8.858;2023-03-01T00:05:11;13.97;;;9.00;;
23123;SDS011;11731;48.592;8.858;2023-03-01T00:07:47;12.87;;;8.60;;
23123;SDS011;11731;48.592;8.858;2023-03-01T00:10:15;12.90;;;7.57;;
23123;SDS011;11731;48.592;8.858;2023-03-01T00:12:42;15.07;;;8.50;;
23123;SDS011;11731;48.592;8.858;2023-03-01T00:15:09;14.37;;;9.03;;
23123;SDS011;11731;48.592;8.858;2023-03-01T00:17:36;16.97;;;8.47;;
23123;SDS011;11731;48.592;8.858;2023-03-01T00:20:04;13.70;;;8.17;;
23123;SDS011;11731;48.592;8.858;2023-03-01T00:22:33;14.57;;;8.63;;
23123;SDS011;11731;48.592;8.858;2023-03-01T00:24:59;12.27;;;8.37;;
23123;SDS011;11731;48.592;8.858;2023-03-01T00:27:28;13.50;;;8.07;;
23123;SDS011;11731;48.592;8.858;2023-03-01T00:29:55;13.43;;;8.63;;
23123;SDS011;11731;48.592;8.858;2023-03-01T00:32:21;11.50;;;8.00;;
23123;SDS011;11731;48.592;8.858;2023-03-01T00:34:48;16.27;;;9.13;;
23123;SDS011;11731;48.592;8.858;2023-03-01T00:37:20;14.60;;;8.50;;
23123;SDS011;11731;48.592;8.858;2023-03-01T00:39:46;15.43;;;8.73;;
23123;SDS011;11731;48.592;8.858;2023-03-01T00:42:25;14.00;;;8.30;;
23123;SDS011;11731;48.592;8.858;2023-03-01T00:44:53;13.10;;;8.57;;
23123;SDS011;11731;48.592;8.858;2023-03-01T00:47:20;14.70;;;8.83;;
23123;SDS011;11731;48.592;8.858;2023-03-01T00:53:09;13.80;;;8.70;;
23123;SDS011;11731;48.592;8.858;2023-03-01T00:55:35;13.07;;;8.67;;
23123;SDS011;11731;48.592;8.858;2023-03-01T00:58:02;15.67;;;8.50;;
23123;SDS011;11731;48.592;8.858;2023-03-01T01:00:31;12.23;;;8.53;;
23123;SDS011;11731;48.592;8.858;2023-03-01T01:02:58;12.67;;;8.43;;
23123;SDS011;11731;48.592;8.858;2023-03-01T01:05:25;14.13;;;8.80;;
23123;SDS011;11731;48.592;8.858;2023-03-01T01:07:52;12.13;;;7.93;;
23123;SDS011;11731;48.592;8.858;2023-03-01T01:10:19;12.23;;;7.67;;
23123;SDS011;11731;48.592;8.858;2023-03-01T01:12:46;13.87;;;8.77;;
23123;SDS011;11731;48.592;8.858;2023-03-01T01:18:38;11.33;;;7.93;;
23123;SDS011;11731;48.592;8.858;2023-03-01T01:21:06;13.37;;;8.63;;
23123;SDS011;11731;48.592;8.858;2023-03-01T01:23:57;12.43;;;7.53;;
23123;SDS011;11731;48.592;8.858;2023-03-01T01:26:26;14.87;;;8.10;;
23123;SDS011;11731;48.592;8.858;2023-03-01T01:28:54;12.57;;;7.77;;
23123;SDS011;11731;48.592;8.858;2023-03-01T01:31:21;13.57;;;9.00;;
23123;SDS011;11731;48.592;8.858;2023-03-01T01:33:50;12.93;;;8.40;;
23123;SDS011;11731;48.592;8.858;2023-03-01T01:36:18;14.37;;;8.90;;
23123;SDS011;11731;48.592;8.858;2023-03-01T01:38:45;12.67;;;8.20;;
23123;SDS011;11731;48.592;8.858;2023-03-01T01:41:12;13.70;;;8.13;;
23123;SDS011;11731;48.592;8.858;2023-03-01T01:43:40;11.43;;;7.67;;
23123;SDS011;11731;48.592;8.858;2023-03-01T01:46:15;13.90;;;8.97;;
23123;SDS011;11731;48.592;8.858;2023-03-01T01:49:11;13.00;;;8.27;;
23123;SDS011;11731;48.592;8.858;2023-03-01T01:51:55;13.30;;;8.50;;
23123;SDS011;11731;48.592;8.858;2023-03-01T01:54:30;12.00;;;8.13;;
23123;SDS011;11731;48.592;8.858;2023-03-01T01:57:07;10.77;;;7.40;;
23123;SDS011;11731;48.592;8.858;2023-03-01T01:59:38;12.53;;;8.13;;
23123;SDS011;11731;48.592;8.858;2023-03-01T02:02:07;12.53;;;7.90;;
23123;SDS011;11731;48.592;8.858;2023-03-01T02:04:36;15.00;;;8.10;;
23123;SDS011;11731;48.592;8.858;2023-03-01T02:07:26;13.97;;;9.03;;
23123;SDS011;11731;48.592;8.858;2023-03-01T02:09:54;11.07;;;8.27;;
23123;SDS011;11731;48.592;8.858;2023-03-01T02:12:21;13.00;;;7.73;;
23123;SDS011;11731;48.592;8.858;2023-03-01T02:14:50;13.10;;;8.87;;
23123;SDS011;11731;48.592;8.858;2023-03-01T02:17:17;21.00;;;9.23;;
23123;SDS011;11731;48.592;8.858;2023-03-01T02:19:50;13.07;;;8.47;;
23123;SDS011;11731;48.592;8.858;2023-03-01T02:22:28;15.37;;;8.83;;
23123;SDS011;11731;48.592;8.858;2023-03-01T02:25:03;17.30;;;9.17;;
23123;SDS011;11731;48.592;8.858;2023-03-01T02:27:43;12.30;;;8.10;;
23123;SDS011;11731;48.592;8.858;2023-03-01T02:30:17;13.80;;;8.83;;
23123;SDS011;11731;48.592;8.858;2023-03-01T02:32:45;15.23;;;9.07;;
23123;SDS011;11731;48.592;8.858;2023-03-01T02:35:13;11.77;;;7.47;;
23123;SDS011;11731;48.592;8.858;2023-03-01T02:37:42;9.50;;;7.10;;
23123;SDS011;11731;48.592;8.858;2023-03-01T02:40:10;13.10;;;9.00;;
23123;SDS011;11731;48.592;8.858;2023-03-01T02:42:44;12.40;;;8.50;;
23123;SDS011;11731;48.592;8.858;2023-03-01T02:45:36;17.07;;;8.77;;
23123;SDS011;11731;48.592;8.858;2023-03-01T02:48:03;12.10;;;8.03;;
23123;SDS011;11731;48.592;8.858;2023-03-01T02:50:42;16.10;;;9.47;;
23123;SDS011;11731;48.592;8.858;2023-03-01T02:53:19;15.90;;;9.00;;
23123;SDS011;11731;48.592;8.858;2023-03-01T02:55:54;12.13;;;8.30;;
23123;SDS011;11731;48.592;8.858;2023-03-01T02:58:21;13.67;;;8.73;;
23123;SDS011;11731;48.592;8.858;2023-03-01T03:00:49;14.27;;;8.50;;
23123;SDS011;11731;48.592;8.858;2023-03-01T03:03:31;14.37;;;8.07;;
23123;SDS011;11731;48.592;8.858;2023-03-01T03:06:00;12.17;;;8.03;;
23123;SDS011;11731;48.592;8.858;2023-03-01T03:08:27;13.30;;;8.20;;
23123;SDS011;11731;48.592;8.858;2023-03-01T03:10:54;12.33;;;8.20;;
23123;SDS011;11731;48.592;8.858;2023-03-01T03:13:21;14.37;;;8.40;;
23123;SDS011;11731;48.592;8.858;2023-03-01T03:15:54;12.50;;;8.33;;
23123;SDS011;11731;48.592;8.858;2023-03-01T03:18:22;13.00;;;8.47;;
23123;SDS011;11731;48.592;8.858;2023-03-01T03:20:51;13.07;;;8.00;;
23123;SDS011;11731;48.592;8.858;2023-03-01T03:23:19;15.70;;;9.13;;
23123;SDS011;11731;48.592;8.858;2023-03-01T03:25:47;12.67;;;8.43;;
23123;SDS011;11731;48.592;8.858;2023-03-01T03:28:15;13.03;;;8.23;;
23123;SDS011;11731;48.592;8.858;2023-03-01T03:30:42;12.27;;;7.90;;
23123;SDS011;11731;48.592;8.858;2023-03-01T03:33:11;12.90;;;9.00;;
23123;SDS011;11731;48.592;8.858;2023-03-01T03:42:31;13.07;;;8.20;;
23123;SDS011;11731;48.592;8.858;2023-03-01T03:44:58;11.57;;;8.13;;
23123;SDS011;11731;48.592;8.858;2023-03-01T03:47:25;16.90;;;8.43;;
23123;SDS011;11731;48.592;8.858;2023-03-01T03:52:36;12.93;;;8.00;;
23123;SDS011;11731;48.592;8.858;2023-03-01T03:55:03;11.87;;;8.23;;
23123;SDS011;11731;48.592;8.858;2023-03-01T03:57:34;13.70;;;8.83;;
23123;SDS011;11731;48.592;8.858;2023-03-01T04:00:01;15.80;;;10.07;;
23123;SDS011;11731;48.592;8.858;2023-03-01T04:02:30;16.10;;;8.80;;
23123;SDS011;11731;48.592;8.858;2023-03-01T04:04:58;13.33;;;8.73;;
23123;SDS011;11731;48.592;8.858;2023-03-01T04:07:26;15.17;;;9.30;;
23123;SDS011;11731;48.592;8.858;2023-03-01T04:09:53;14.00;;;9.20;;
23123;SDS011;11731;48.592;8.858;2023-03-01T04:12:33;14.73;;;9.10;;
23123;SDS011;11731;48.592;8.858;2023-03-01T04:15:01;13.17;;;8.93;;
23123;SDS011;11731;48.592;8.858;2023-03-01T04:17:37;13.33;;;8.73;;
23123;SDS011;11731;48.592;8.858;2023-03-01T04:20:05;12.17;;;8.67;;
23123;SDS011;11731;48.592;8.858;2023-03-01T04:22:34;15.83;;;9.20;;
23123;SDS011;11731;48.592;8.858;2023-03-01T04:25:01;14.80;;;8.67;;
23123;SDS011;11731;48.592;8.858;2023-03-01T04:27:31;15.07;;;8.50;;
23123;SDS011;11731;48.592;8.858;2023-03-01T04:29:58;17.27;;;9.53;;
23123;SDS011;11731;48.592;8.858;2023-03-01T04:32:25;13.87;;;9.57;;
23123;SDS011;11731;48.592;8.858;2023-03-01T04:34:52;12.47;;;8.90;;
23123;SDS011;11731;48.592;8.858;2023-03-01T04:37:19;14.27;;;9.70;;
23123;SDS011;11731;48.592;8.858;2023-03-01T04:39:47;13.70;;;9.37;;
23123;SDS011;11731;48.592;8.858;2023-03-01T04:42:14;16.07;;;9.80;;
23123;SDS011;11731;48.592;8.858;2023-03-01T04:44:55;17.03;;;9.77;;
23123;SDS011;11731;48.592;8.858;2023-03-01T04:47:22;17.67;;;9.60;;
23123;SDS011;11731;48.592;8.858;2023-03-01T04:49:48;13.53;;;8.73;;
23123;SDS011;11731;48.592;8.858;2023-03-01T04:52:17;16.93;;;9.33;;
23123;SDS011;11731;48.592;8.858;2023-03-01T04:54:44;13.53;;;9.23;;
23123;SDS011;11731;48.592;8.858;2023-03-01T04:57:12;12.30;;;9.13;;
23123;SDS011;11731;48.592;8.858;2023-03-01T04:59:39;15.03;;;8.83;;
23123;SDS011;11731;48.592;8.858;2023-03-01T05:02:06;13.40;;;8.83;;
23123;SDS011;11731;48.592;8.858;2023-03-01T05:05:01;12.60;;;8.83;;
23123;SDS011;11731;48.592;8.858;2023-03-01T05:07:28;14.60;;;9.40;;
23123;SDS011;11731;48.592;8.858;2023-03-01T05:09:55;15.67;;;9.83;;
23123;SDS011;11731;48.592;8.858;2023-03-01T05:12:25;16.60;;;9.87;;
23123;SDS011;11731;48.592;8.858;2023-03-01T05:14:52;14.83;;;9.43;;
23123;SDS011;11731;48.592;8.858;2023-03-01T05:17:20;13.73;;;8.83;;
23123;SDS011;11731;48.592;8.858;2023-03-01T05:20:01;14.37;;;9.77;;
23123;SDS011;11731;48.592;8.858;2023-03-01T05:22:31;13.77;;;8.80;;
23123;SDS011;11731;48.592;8.858;2023-03-01T05:24:58;13.03;;;8.80;;
23123;SDS011;11731;48.592;8.858;2023-03-01T05:27:27;17.17;;;8.80;;
23123;SDS011;11731;48.592;8.858;2023-03-01T05:29:54;14.60;;;9.47;;
23123;SDS011;11731;48.592;8.858;2023-03-01T05:32:21;14.37;;;9.30;;
23123;SDS011;11731;48.592;8.858;2023-03-01T05:34:48;13.33;;;9.27;;
23123;SDS011;11731;48.592;8.858;2023-03-01T05:37:17;14.87;;;8.90;;
23123;SDS011;11731;48.592;8.858;2023-03-01T05:39:44;13.40;;;9.07;;
23123;SDS011;11731;48.592;8.858;2023-03-01T05:42:11;14.50;;;8.97;;
23123;SDS011;11731;48.592;8.858;2023-03-01T05:44:39;15.33;;;9.80;;
23123;SDS011;11731;48.592;8.858;2023-03-01T05:47:06;13.37;;;8.73;;
23123;SDS011;11731;48.592;8.858;2023-03-01T05:49:35;13.67;;;9.53;;
23123;SDS011;11731;48.592;8.858;2023-03-01T05:52:15;14.97;;;10.03;;
23123;SDS011;11731;48.592;8.858;2023-03-01T05:54:50;15.50;;;9.43;;
23123;SDS011;11731;48.592;8.858;2023-03-01T05:57:17;17.70;;;10.00;;
23123;SDS011;11731;48.592;8.858;2023-03-01T05:59:46;13.63;;;8.30;;
23123;SDS011;11731;48.592;8.858;2023-03-01T06:02:13;13.53;;;9.33;;
23123;SDS011;11731;48.592;8.858;2023-03-01T06:04:40;15.97;;;9.83;;
23123;SDS011;11731;48.592;8.858;2023-03-01T06:07:06;14.20;;;9.57;;
23123;SDS011;11731;48.592;8.858;2023-03-01T06:09:33;15.10;;;10.00;;
23123;SDS011;11731;48.592;8.858;2023-03-01T06:12:00;14.87;;;9.03;;
23123;SDS011;11731;48.592;8.858;2023-03-01T06:14:27;14.90;;;9.40;;
23123;SDS011;11731;48.592;8.858;2023-03-01T06:16:55;15.73;;;9.77;;
23123;SDS011;11731;48.592;8.858;2023-03-01T06:19:22;15.07;;;9.50;;
23123;SDS011;11731;48.592;8.858;2023-03-01T06:21:49;15.03;;;9.57;;
23123;SDS011;11731;48.592;8.858;2023-03-01T06:24:16;15.57;;;9.37;;
23123;SDS011;11731;48.592;8.858;2023-03-01T06:26:43;14.10;;;9.33;;
23123;SDS011;11731;48.592;8.858;2023-03-01T06:29:09;15.67;;;9.60;;
23123;SDS011;11731;48.592;8.858;2023-03-01T06:31:36;15.93;;;9.20;;
23123;SDS011;11731;48.592;8.858;2023-03-01T06:34:04;15.23;;;10.30;;
23123;SDS011;11731;48.592;8.858;2023-03-01T06:36:31;18.40;;;11.33;;
23123;SDS011;11731;48.592;8.858;2023-03-01T06:38:58;17.73;;;10.03;;
23123;SDS011;11731;48.592;8.858;2023-03-01T06:41:25;16.27;;;9.57;;
23123;SDS011;11731;48.592;8.858;2023-03-01T06:43:52;19.13;;;10.30;;
23123;SDS011;11731;48.592;8.858;2023-03-01T06:46:20;14.97;;;8.97;;
23123;SDS011;11731;48.592;8.858;2023-03-01T06:48:47;12.53;;;8.57;;
23123;SDS011;11731;48.592;8.858;2023-03-01T06:51:15;14.00;;;9.00;;
23123;SDS011;11731;48.592;8.858;2023-03-01T06:53:42;16.57;;;10.30;;
23123;SDS011;11731;48.592;8.858;2023-03-01T06:56:09;15.00;;;10.27;;
23123;SDS011;11731;48.592;8.858;2023-03-01T06:58:35;16.27;;;10.47;;
23123;SDS011;11731;48.592;8.858;2023-03-01T07:01:05;15.00;;;9.33;;
23123;SDS011;11731;48.592;8.858;2023-03-01T07:03:32;16.07;;;10.10;;
23123;SDS011;11731;48.592;8.858;2023-03-01T07:05:59;15.27;;;10.37;;
23123;SDS011;11731;48.592;8.858;2023-03-01T07:08:27;16.63;;;9.67;;
23123;SDS011;11731;48.592;8.858;2023-03-01T07:10:56;16.00;;;10.23;;
23123;SDS011;11731;48.592;8.858;2023-03-01T07:13:24;12.13;;;8.63;;
23123;SDS011;11731;48.592;8.858;2023-03-01T07:15:51;15.90;;;10.00;;
23123;SDS011;11731;48.592;8.858;2023-03-01T07:18:17;15.97;;;9.93;;
23123;SDS011;11731;48.592;8.858;2023-03-01T07:20:44;15.30;;;10.30;;
23123;SDS011;11731;48.592;8.858;2023-03-01T07:23:11;15.93;;;11.10;;
23123;SDS011;11731;48.592;8.858;2023-03-01T07:25:39;14.73;;;9.40;;
23123;SDS011;11731;48.592;8.858;2023-03-01T07:28:06;12.47;;;7.77;;
23123;SDS011;11731;48.592;8.858;2023-03-01T07:30:33;15.07;;;9.47;;
23123;SDS011;11731;48.592;8.858;2023-03-01T07:33:00;12.13;;;8.30;;
23123;SDS011;11731;48.592;8.858;2023-03-01T07:35:27;21.17;;;9.33;;
23123;SDS011;11731;48.592;8.858;2023-03-01T07:37:54;16.80;;;9.70;;
23123;SDS011;11731;48.592;8.858;2023-03-01T07:40:21;17.10;;;10.57;;
23123;SDS011;11731;48.592;8.858;2023-03-01T07:42:50;18.30;;;10.53;;
23123;SDS011;11731;48.592;8.858;2023-03-01T07:45:21;14.53;;;9.87;;
23123;SDS011;11731;48.592;8.858;2023-03-01T07:47:49;18.27;;;11.20;;
23123;SDS011;11731;48.592;8.858;2023-03-01T07:50:16;15.43;;;9.60;;
23123;SDS011;11731;48.592;8.858;2023-03-01T07:52:47;15.70;;;9.67;;
23123;SDS011;11731;48.592;8.858;2023-03-01T07:55:15;14.87;;;9.87;;
23123;SDS011;11731;48.592;8.858;2023-03-01T07:57:43;14.93;;;9.93;;
23123;SDS011;11731;48.592;8.858;2023-03-01T08:00:12;15.73;;;10.00;;
23123;SDS011;11731;48.592;8.858;2023-03-01T08:02:39;17.33;;;9.63;;
23123;SDS011;11731;48.592;8.858;2023-03-01T08:05:07;15.87;;;10.27;;
23123;SDS011;11731;48.592;8.858;2023-03-01T08:07:35;15.87;;;10.07;;
23123;SDS011;11731;48.592;8.858;2023-03-01T08:10:05;16.03;;;10.60;;
23123;SDS011;11731;48.592;8.858;2023-03-01T08:12:32;16.20;;;10.50;;
23123;SDS011;11731;48.592;8.858;2023-03-01T08:15:04;19.17;;;10.87;;
23123;SDS011;11731;48.592;8.858;2023-03-01T08:17:39;14.33;;;9.90;;
23123;SDS011;11731;48.592;8.858;2023-03-01T08:20:09;15.57;;;10.50;;
23123;SDS011;11731;48.592;8.858;2023-03-01T08:22:37;17.03;;;10.33;;
23123;SDS011;11731;48.592;8.858;2023-03-01T08:25:04;16.00;;;10.40;;
23123;SDS011;11731;48.592;8.858;2023-03-01T08:27:32;17.70;;;9.93;;
23123;SDS011;11731;48.592;8.858;2023-03-01T08:29:58;15.90;;;9.90;;
23123;SDS011;11731;48.592;8.858;2023-03-01T08:32:28;16.73;;;10.07;;
23123;SDS011;11731;48.592;8.858;2023-03-01T08:34:56;15.13;;;9.67;;
23123;SDS011;11731;48.592;8.858;2023-03-01T08:37:23;15.80;;;10.83;;
23123;SDS011;11731;48.592;8.858;2023-03-01T08:39:51;17.63;;;10.37;;
23123;SDS011;11731;48.592;8.858;2023-03-01T08:42:19;17.53;;;11.30;;
23123;SDS011;11731;48.592;8.858;2023-03-01T08:44:46;15.77;;;10.43;;
23123;SDS011;11731;48.592;8.858;2023-03-01T08:47:14;15.23;;;9.83;;
23123;SDS011;11731;48.592;8.858;2023-03-01T08:49:41;16.57;;;10.13;;
23123;SDS011;11731;48.592;8.858;2023-03-01T08:52:09;15.37;;;10.43;;
23123;SDS011;11731;48.592;8.858;2023-03-01T08:54:36;24.57;;;11.27;;
23123;SDS011;11731;48.592;8.858;2023-03-01T08:57:03;17.30;;;10.43;;
23123;SDS011;11731;48.592;8.858;2023-03-01T08:59:30;16.20;;;10.10;;
23123;SDS011;11731;48.592;8.858;2023-03-01T09:02:02;18.83;;;11.57;;
23123;SDS011;11731;48.592;8.858;2023-03-01T09:04:29;16.23;;;11.30;;
23123;SDS011;11731;48.592;8.858;2023-03-01T09:06:56;15.60;;;10.17;;
23123;SDS011;11731;48.592;8.858;2023-03-01T09:09:24;15.20;;;10.90;;
23123;SDS011;11731;48.592;8.858;2023-03-01T09:11:51;15.97;;;10.13;;
23123;SDS011;11731;48.592;8.858;2023-03-01T09:14:18;15.63;;;10.13;;
23123;SDS011;11731;48.592;8.858;2023-03-01T09:16:45;13.93;;;9.80;;
23123;SDS011;11731;48.592;8.858;2023-03-01T09:19:12;15.33;;;10.10;;
23123;SDS011;11731;48.592;8.858;2023-03-01T09:21:40;19.70;;;11.07;;
23123;SDS011;11731;48.592;8.858;2023-03-01T09:24:17;14.17;;;10.07;;
23123;SDS011;11731;48.592;8.858;2023-03-01T09:26:47;18.53;;;10.50;;
23123;SDS011;11731;48.592;8.858;2023-03-01T09:29:14;16.00;;;10.33;;
23123;SDS011;11731;48.592;8.858;2023-03-01T09:31:42;14.27;;;9.93;;
23123;SDS011;11731;48.592;8.858;2023-03-01T09:34:09;15.60;;;11.10;;
23123;SDS011;11731;48.592;8.858;2023-03-01T09:36:36;15.67;;;11.17;;
23123;SDS011;11731;48.592;8.858;2023-03-01T09:39:06;14.70;;;9.70;;
23123;SDS011;11731;48.592;8.858;2023-03-01T09:48:20;15.87;;;10.03;;
23123;SDS011;11731;48.592;8.858;2023-03-01T09:50:50;21.83;;;10.80;;
23123;SDS011;11731;48.592;8.858;2023-03-01T09:53:19;20.03;;;10.37;;
23123;SDS011;11731;48.592;8.858;2023-03-01T09:55:55;17.10;;;10.23;;
23123;SDS011;11731;48.592;8.858;2023-03-01T09:58:33;14.40;;;9.90;;
23123;SDS011;11731;48.592;8.858;2023-03-01T10:01:10;14.70;;;9.63;;
23123;SDS011;11731;48.592;8.858;2023-03-01T10:03:55;17.90;;;10.33;;
23123;SDS011;11731;48.592;8.858;2023-03-01T10:06:32;17.57;;;11.60;;
23123;SDS011;11731;48.592;8.858;2023-03-01T10:09:00;17.30;;;10.50;;
23123;SDS011;11731;48.592;8.858;2023-03-01T10:11:32;15.47;;;10.57;;
23123;SDS011;11731;48.592;8.858;2023-03-01T10:14:05;15.63;;;9.87;;
23123;SDS011;11731;48.592;8.858;2023-03-01T10:16:43;14.70;;;9.37;;
23123;SDS011;11731;48.592;8.858;2023-03-01T10:19:17;17.97;;;10.80;;
23123;SDS011;11731;48.592;8.858;2023-03-01T10:21:49;14.13;;;10.07;;
23123;SDS011;11731;48.592;8.858;2023-03-01T10:24:18;14.57;;;10.67;;
23123;SDS011;11731;48.592;8.858;2023-03-01T10:26:52;14.90;;;10.50;;
23123;SDS011;11731;48.592;8.858;2023-03-01T10:29:23;14.53;;;10.20;;
23123;SDS011;11731;48.592;8.858;2023-03-01T10:31:56;15.70;;;10.37;;
23123;SDS011;11731;48.592;8.858;2023-03-01T10:34:28;13.90;;;9.80;;
23123;SDS011;11731;48.592;8.858;2023-03-01T10:36:57;15.13;;;10.33;;
23123;SDS011;11731;48.592;8.858;2023-03-01T10:39:28;19.60;;;11.77;;
23123;SDS011;11731;48.592;8.858;2023-03-01T10:41:56;14.83;;;9.77;;
23123;SDS011;11731;48.592;8.858;2023-03-01T10:44:41;15.87;;;10.53;;
23123;SDS011;11731;48.592;8.858;2023-03-01T10:47:14;14.03;;;10.03;;
23123;SDS011;11731;48.592;8.858;2023-03-01T10:49:59;14.53;;;10.47;;
23123;SDS011;11731;48.592;8.858;2023-03-01T10:52:35;14.57;;;10.03;;
23123;SDS011;11731;48.592;8.858;2023-03-01T10:57:22;14.47;;;10.03;;
23123;SDS011;11731;48.592;8.858;2023-03-01T11:00:22;16.63;;;10.53;;
23123;SDS011;11731;48.592;8.858;2023-03-01T11:02:28;14.77;;;10.67;;
23123;SDS011;11731;48.592;8.858;2023-03-01T11:05:16;15.23;;;10.33;;
23123;SDS011;11731;48.592;8.858;2023-03-01T11:07:48;13.80;;;9.47;;
23123;SDS011;11731;48.592;8.858;2023-03-01T11:10:20;14.17;;;10.30;;
23123;SDS011;11731;48.592;8.858;2023-03-01T11:16:10;13.40;;;10.33;;
23123;SDS011;11731;48.592;8.858;2023-03-01T11:18:40;13.93;;;9.80;;
23123;SDS011;11731;48.592;8.858;2023-03-01T11:21:09;14.00;;;10.90;;
23123;SDS011;11731;48.592;8.858;2023-03-01T11:23:41;13.80;;;9.70;;
23123;SDS011;11731;48.592;8.858;2023-03-01T11:26:12;16.00;;;9.67;;
23123;SDS011;11731;48.592;8.858;2023-03-01T11:28:43;15.07;;;9.93;;
23123;SDS011;11731;48.592;8.858;2023-03-01T11:31:14;12.83;;;9.27;;
23123;SDS011;11731;48.592;8.858;2023-03-01T11:33:55;15.67;;;9.97;;
23123;SDS011;11731;48.592;8.858;2023-03-01T11:36:30;14.97;;;10.17;;
23123;SDS011;11731;48.592;8.858;2023-03-01T11:39:02;15.87;;;9.23;;
23123;SDS011;11731;48.592;8.858;2023-03-01T11:41:38;14.20;;;9.77;;
23123;SDS011;11731;48.592;8.858;2023-03-01T11:44:10;14.43;;;9.70;;
23123;SDS011;11731;48.592;8.858;2023-03-01T11:46:45;16.30;;;10.23;;
23123;SDS011;11731;48.592;8.858;2023-03-01T11:52:20;13.73;;;9.30;;
23123;SDS011;11731;48.592;8.858;2023-03-01T11:54:59;13.13;;;8.47;;
23123;SDS011;11731;48.592;8.858;2023-03-01T11:57:45;13.90;;;9.53;;
23123;SDS011;11731;48.592;8.858;2023-03-01T12:00:30;14.60;;;10.23;;
23123;SDS011;11731;48.592;8.858;2023-03-01T12:03:21;15.30;;;9.67;;
23123;SDS011;11731;48.592;8.858;2023-03-01T12:06:00;17.30;;;10.33;;
23123;SDS011;11731;48.592;8.858;2023-03-01T12:08:54;13.20;;;9.30;;
23123;SDS011;11731;48.592;8.858;2023-03-01T12:11:29;14.43;;;10.03;;
23123;SDS011;11731;48.592;8.858;2023-03-01T12:17:11;19.63;;;10.97;;
23123;SDS011;11731;48.592;8.858;2023-03-01T12:20:06;17.77;;;10.50;;
23123;SDS011;11731;48.592;8.858;2023-03-01T12:22:46;15.17;;;9.37;;
23123;SDS011;11731;48.592;8.858;2023-03-01T12:25:29;12.10;;;9.20;;
23123;SDS011;11731;48.592;8.858;2023-03-01T12:31:08;14.97;;;9.57;;
23123;SDS011;11731;48.592;8.858;2023-03-01T12:33:59;15.03;;;9.83;;
23123;SDS011;11731;48.592;8.858;2023-03-01T12:36:44;14.50;;;10.00;;
23123;SDS011;11731;48.592;8.858;2023-03-01T12:39:29;15.40;;;10.53;;
23123;SDS011;11731;48.592;8.858;2023-03-01T12:42:07;17.03;;;10.27;;
23123;SDS011;11731;48.592;8.858;2023-03-01T12:44:46;13.37;;;9.87;;
23123;SDS011;11731;48.592;8.858;2023-03-01T12:47:33;14.73;;;9.87;;
23123;SDS011;11731;48.592;8.858;2023-03-01T12:50:11;15.03;;;10.67;;
23123;SDS011;11731;48.592;8.858;2023-03-01T12:52:44;16.10;;;10.13;;
23123;SDS011;11731;48.592;8.858;2023-03-01T12:55:19;13.43;;;9.60;;
23123;SDS011;11731;48.592;8.858;2023-03-01T12:57:55;13.03;;;9.60;;
23123;SDS011;11731;48.592;8.858;2023-03-01T13:00:31;12.57;;;9.53;;
23123;SDS011;11731;48.592;8.858;2023-03-01T13:03:06;12.73;;;9.30;;
23123;SDS011;11731;48.592;8.858;2023-03-01T13:05:51;17.90;;;11.80;;
23123;SDS011;11731;48.592;8.858;2023-03-01T13:08:31;15.77;;;11.40;;
23123;SDS011;11731;48.592;8.858;2023-03-01T13:11:03;13.00;;;9.17;;
23123;SDS011;11731;48.592;8.858;2023-03-01T13:13:37;11.53;;;8.77;;
23123;SDS011;11731;48.592;8.858;2023-03-01T13:19:07;15.33;;;10.07;;
23123;SDS011;11731;48.592;8.858;2023-03-01T13:21:41;14.03;;;9.90;;
23123;SDS011;11731;48.592;8.858;2023-03-01T13:24:26;13.10;;;9.57;;
23123;SDS011;11731;48.592;8.858;2023-03-01T13:27:08;13.87;;;9.80;;
23123;SDS011;11731;48.592;8.858;2023-03-01T13:29:47;15.00;;;9.03;;
23123;SDS011;11731;48.592;8.858;2023-03-01T13:32:20;13.57;;;9.77;;
23123;SDS011;11731;48.592;8.858;2023-03-01T13:34:56;13.90;;;9.23;;
23123;SDS011;11731;48.592;8.858;2023-03-01T13:37:25;16.17;;;10.50;;
23123;SDS011;11731;48.592;8.858;2023-03-01T13:39:58;13.60;;;9.90;;
23123;SDS011;11731;48.592;8.858;2023-03-01T13:42:37;15.33;;;9.57;;
23123;SDS011;11731;48.592;8.858;2023-03-01T13:45:17;15.33;;;9.67;;
23123;SDS011;11731;48.592;8.858;2023-03-01T13:47:49;13.83;;;9.73;;
23123;SDS011;11731;48.592;8.858;2023-03-01T13:50:20;12.27;;;9.70;;
23123;SDS011;11731;48.592;8.858;2023-03-01T13:52:50;13.77;;;9.77;;
23123;SDS011;11731;48.592;8.858;2023-03-01T13:55:23;13.07;;;10.13;;
23123;SDS011;11731;48.592;8.858;2023-03-01T13:58:00;14.03;;;8.70;;
23123;SDS011;11731;48.592;8.858;2023-03-01T14:00:33;12.67;;;8.50;;
23123;SDS011;11731;48.592;8.858;2023-03-01T14:03:08;12.03;;;8.67;;
23123;SDS011;11731;48.592;8.858;2023-03-01T14:05:37;13.53;;;8.53;;
23123;SDS011;11731;48.592;8.858;2023-03-01T14:08:05;10.73;;;8.40;;
23123;SDS011;11731;48.592;8.858;2023-03-01T14:10:44;11.10;;;8.70;;
23123;SDS011;11731;48.592;8.858;2023-03-01T14:13:23;12.20;;;8.17;;
23123;SDS011;11731;48.592;8.858;2023-03-01T14:16:08;11.70;;;8.10;;
23123;SDS011;11731;48.592;8.858;2023-03-01T14:18:45;13.37;;;8.43;;
23123;SDS011;11731;48.592;8.858;2023-03-01T14:21:18;13.17;;;8.53;;
23123;SDS011;11731;48.592;8.858;2023-03-01T14:23:45;12.13;;;8.40;;
23123;SDS011;11731;48.592;8.858;2023-03-01T14:26:12;13.33;;;9.03;;
23123;SDS011;11731;48.592;8.858;2023-03-01T14:28:45;14.13;;;8.43;;
23123;SDS011;11731;48.592;8.858;2023-03-01T14:31:31;14.57;;;8.60;;
23123;SDS011;11731;48.592;8.858;2023-03-01T14:34:03;11.87;;;8.60;;
23123;SDS011;11731;48.592;8.858;2023-03-01T14:36:31;11.13;;;8.07;;
23123;SDS011;11731;48.592;8.858;2023-03-01T14:39:00;11.60;;;8.83;;
23123;SDS011;11731;48.592;8.858;2023-03-01T14:41:31;12.43;;;8.67;;
23123;SDS011;11731;48.592;8.858;2023-03-01T14:44:01;13.97;;;9.23;;
23123;SDS011;11731;48.592;8.858;2023-03-01T14:46:33;15.13;;;10.20;;
23123;SDS011;11731;48.592;8.858;2023-03-01T14:49:03;15.57;;;10.33;;
23123;SDS011;11731;48.592;8.858;2023-03-01T14:51:35;15.47;;;9.83;;
23123;SDS011;11731;48.592;8.858;2023-03-01T14:54:03;14.83;;;9.17;;
23123;SDS011;11731;48.592;8.858;2023-03-01T14:56:44;11.70;;;8.27;;
23123;SDS011;11731;48.592;8.858;2023-03-01T14:59:13;20.23;;;10.60;;
23123;SDS011;11731;48.592;8.858;2023-03-01T15:01:41;15.37;;;10.50;;
23123;SDS011;11731;48.592;8.858;2023-03-01T15:04:11;14.33;;;10.87;;
23123;SDS011;11731;48.592;8.858;2023-03-01T15:06:41;16.47;;;9.93;;
23123;SDS011;11731;48.592;8.858;2023-03-01T15:09:12;14.53;;;10.83;;
23123;SDS011;11731;48.592;8.858;2023-03-01T15:11:44;17.20;;;11.40;;
23123;SDS011;11731;48.592;8.858;2023-03-01T15:17:18;16.93;;;10.27;;
23123;SDS011;11731;48.592;8.858;2023-03-01T15:19:49;15.37;;;9.90;;
23123;SDS011;11731;48.592;8.858;2023-03-01T15:22:16;12.37;;;9.53;;
23123;SDS011;11731;48.592;8.858;2023-03-01T15:24:46;16.73;;;10.23;;
23123;SDS011;11731;48.592;8.858;2023-03-01T15:27:14;16.00;;;10.20;;
23123;SDS011;11731;48.592;8.858;2023-03-01T15:29:46;12.50;;;9.47;;
23123;SDS011;11731;48.592;8.858;2023-03-01T15:32:25;16.17;;;10.10;;
23123;SDS011;11731;48.592;8.858;2023-03-01T15:34:54;13.33;;;9.87;;
23123;SDS011;11731;48.592;8.858;2023-03-01T15:37:36;15.60;;;10.27;;